createdAt,value
2023-02-11T00:02:29.585Z,2.20
2023-02-11T00:04:57.677Z,2.20
2023-02-11T00:07:27.140Z,2.20
2023-02-11T00:09:55.142Z,2.20
2023-02-11T00:12:23.358Z,2.10
2023-02-11T00:14:51.633Z,2.10
2023-02-11T00:17:19.762Z,2.10
2023-02-11T00:19:50.675Z,2.10
2023-02-11T00:22:18.898Z,2.10
2023-02-11T00:24:48.503Z,2.10
2023-02-11T00:27:16.611Z,2.10
2023-02-11T00:29:44.633Z,2.10
2023-02-11T00:32:12.891Z,2.10
2023-02-11T00:34:40.922Z,2.10
2023-02-11T00:37:09.042Z,2.10
2023-02-11T00:39:38.634Z,2.00
2023-02-11T00:42:08.164Z,2.00
2023-02-11T00:44:36.236Z,2.00
2023-02-11T00:47:04.358Z,2.00
2023-02-11T00:49:32.624Z,2.00
2023-02-11T00:52:00.754Z,2.00
2023-02-11T00:54:30.042Z,2.00
2023-02-11T00:56:58.154Z,2.00
2023-02-11T00:59:27.555Z,2.00
2023-02-11T01:01:55.787Z,2.00
2023-02-11T01:04:23.875Z,2.00
2023-02-11T01:06:52.007Z,2.00
2023-02-11T01:09:21.180Z,2.00
2023-02-11T01:11:49.413Z,1.90
2023-02-11T01:14:17.543Z,1.90
2023-02-11T01:16:47.040Z,1.90
2023-02-11T01:19:15.108Z,1.90
2023-02-11T01:21:43.204Z,1.90
2023-02-11T01:24:11.294Z,1.90
2023-02-11T01:26:39.403Z,1.90
2023-02-11T01:29:07.428Z,1.90
2023-02-11T01:31:35.674Z,1.80
2023-02-11T01:34:05.099Z,1.80
2023-02-11T01:36:33.213Z,1.80
2023-02-11T01:39:01.449Z,1.80
2023-02-11T01:41:29.562Z,1.80
2023-02-11T01:43:57.610Z,1.70
2023-02-11T01:46:34.642Z,1.70
2023-02-11T01:49:07.331Z,1.70
2023-02-11T01:51:39.288Z,1.70
2023-02-11T01:54:27.820Z,1.70
2023-02-11T01:57:16.613Z,1.60
2023-02-11T01:59:59.318Z,1.60
2023-02-11T02:02:32.364Z,1.60
2023-02-11T02:05:08.026Z,1.60
2023-02-11T02:07:43.147Z,1.60
2023-02-11T02:10:17.770Z,1.50
2023-02-11T02:12:45.867Z,1.50
2023-02-11T02:15:22.360Z,1.50
2023-02-11T02:17:58.282Z,1.50
2023-02-11T02:20:57.296Z,1.50
2023-02-11T02:23:40.178Z,1.50
2023-02-11T02:26:31.830Z,1.50
2023-02-11T02:29:27.435Z,1.50
2023-02-11T02:32:26.081Z,1.50
2023-02-11T02:35:03.510Z,1.40
2023-02-11T02:37:38.123Z,1.40
2023-02-11T02:40:12.485Z,1.40
2023-02-11T02:42:42.299Z,1.40
2023-02-11T02:45:13.044Z,1.40
2023-02-11T02:47:42.549Z,1.40
2023-02-11T02:50:11.660Z,1.40
2023-02-11T02:52:47.878Z,1.40
2023-02-11T02:55:39.490Z,1.40
2023-02-11T02:58:23.907Z,1.40
2023-02-11T03:01:02.653Z,1.40
2023-02-11T03:03:43.429Z,1.30
2023-02-11T03:06:18.701Z,1.30
2023-02-11T03:08:52.154Z,1.30
2023-02-11T03:11:22.885Z,1.30
2023-02-11T03:13:52.158Z,1.30
2023-02-11T03:16:23.496Z,1.30
2023-02-11T03:19:00.530Z,1.30
2023-02-11T03:21:30.280Z,1.30
2023-02-11T03:24:03.100Z,1.20
2023-02-11T03:26:37.218Z,1.20
2023-02-11T03:29:11.660Z,1.20
2023-02-11T03:31:48.107Z,1.20
2023-02-11T03:34:23.005Z,1.20
2023-02-11T03:36:55.967Z,1.20
2023-02-11T03:39:27.327Z,1.20
2023-02-11T03:41:58.551Z,1.20
2023-02-11T03:44:33.826Z,1.20
2023-02-11T03:47:04.591Z,1.20
2023-02-11T03:49:36.337Z,1.10
2023-02-11T03:52:06.634Z,1.10
2023-02-11T03:54:35.601Z,1.10
2023-02-11T03:57:04.407Z,1.10
2023-02-11T03:59:32.554Z,1.10
2023-02-11T04:02:00.684Z,1.10
2023-02-11T04:04:28.819Z,1.10
2023-02-11T04:06:58.685Z,1.10
2023-02-11T04:09:26.719Z,1.10
2023-02-11T04:11:54.807Z,1.10
2023-02-11T04:14:22.833Z,1.10
2023-02-11T04:16:50.941Z,1.10
2023-02-11T04:19:18.964Z,1.00
2023-02-11T04:21:47.091Z,1.00
2023-02-11T04:24:16.490Z,1.00
2023-02-11T04:26:44.674Z,1.00
2023-02-11T04:29:12.718Z,1.00
2023-02-11T04:31:40.874Z,1.00
2023-02-11T04:34:08.934Z,1.00
2023-02-11T04:36:37.244Z,1.00
2023-02-11T04:39:05.557Z,1.00
2023-02-11T04:41:35.170Z,1.00
2023-02-11T04:44:03.338Z,1.00
2023-02-11T04:46:31.454Z,1.00
2023-02-11T04:48:59.587Z,1.00
2023-02-11T04:51:27.676Z,1.00
2023-02-11T04:53:55.712Z,0.90
2023-02-11T04:56:23.830Z,0.90
2023-02-11T04:58:53.211Z,0.90
2023-02-11T05:01:21.442Z,0.90
2023-02-11T05:03:51.048Z,0.90
2023-02-11T05:06:19.369Z,0.90
2023-02-11T05:08:47.520Z,0.90
2023-02-11T05:11:18.017Z,0.90
2023-02-11T05:13:46.152Z,0.90
2023-02-11T05:16:16.145Z,0.90
2023-02-11T05:18:45.594Z,0.90
2023-02-11T05:21:16.515Z,0.90
2023-02-11T05:23:45.738Z,0.90
2023-02-11T05:26:14.453Z,0.90
2023-02-11T05:28:43.231Z,0.90
2023-02-11T05:31:11.911Z,0.80
2023-02-11T05:33:41.435Z,0.80
2023-02-11T05:36:12.438Z,0.80
2023-02-11T05:38:40.730Z,0.80
2023-02-11T05:41:08.929Z,0.80
2023-02-11T05:43:37.120Z,0.80
2023-02-11T05:46:06.332Z,0.80
2023-02-11T05:48:34.435Z,0.80
2023-02-11T05:51:03.896Z,0.80
2023-02-11T05:53:31.944Z,0.80
2023-02-11T05:55:59.970Z,0.80
2023-02-11T05:58:28.253Z,0.80
2023-02-11T06:00:56.314Z,0.80
2023-02-11T06:03:24.409Z,0.70
2023-02-11T06:05:52.695Z,0.70
2023-02-11T06:08:22.352Z,0.70
2023-02-11T06:10:50.391Z,0.70
2023-02-11T06:13:19.732Z,0.60
2023-02-11T06:15:57.257Z,0.60
2023-02-11T06:18:25.625Z,0.60
2023-02-11T06:20:53.825Z,0.60
2023-02-11T06:23:23.512Z,0.60
2023-02-11T06:25:52.157Z,0.60
2023-02-11T06:28:20.803Z,0.60
2023-02-11T06:30:48.964Z,0.60
2023-02-11T06:33:17.478Z,0.60
2023-02-11T06:35:45.505Z,0.60
2023-02-11T06:38:13.534Z,0.60
2023-02-11T06:40:47.965Z,0.60
2023-02-11T06:43:15.997Z,0.60
2023-02-11T06:45:44.112Z,0.70
2023-02-11T06:48:12.386Z,0.70
2023-02-11T06:50:40.406Z,0.70
2023-02-11T06:53:08.474Z,0.70
2023-02-11T06:55:36.541Z,0.70
2023-02-11T06:58:05.970Z,0.80
2023-02-11T07:00:34.035Z,0.80
2023-02-11T07:03:02.128Z,0.80
2023-02-11T07:05:30.569Z,0.90
2023-02-11T07:07:58.954Z,0.90
2023-02-11T07:10:26.984Z,1.00
2023-02-11T07:12:57.084Z,1.00
2023-02-11T07:15:28.111Z,1.10
2023-02-11T07:17:56.155Z,1.10
2023-02-11T07:20:24.259Z,1.20
2023-02-11T07:22:52.351Z,1.20
2023-02-11T07:25:20.404Z,1.30
2023-02-11T07:27:50.082Z,1.40
2023-02-11T07:30:18.271Z,1.40
2023-02-11T07:32:47.693Z,1.50
2023-02-11T07:35:15.868Z,1.60
2023-02-11T07:37:44.000Z,1.60
2023-02-11T07:40:12.745Z,1.70
2023-02-11T07:42:41.670Z,1.80
2023-02-11T07:45:10.479Z,1.90
2023-02-11T07:47:38.878Z,2.00
2023-02-11T07:50:08.794Z,2.10
2023-02-11T07:52:36.950Z,2.20
2023-02-11T07:55:05.190Z,2.30
2023-02-11T07:57:33.225Z,2.40
2023-02-11T08:00:01.264Z,2.60
2023-02-11T08:02:29.392Z,2.70
2023-02-11T08:04:57.500Z,2.90
2023-02-11T08:07:29.255Z,3.00
2023-02-11T08:09:57.314Z,3.20
2023-02-11T08:12:25.386Z,3.30
2023-02-11T08:14:53.459Z,3.40
2023-02-11T08:17:21.592Z,3.60
2023-02-11T08:19:49.641Z,3.80
2023-02-11T08:22:17.716Z,3.90
2023-02-11T08:24:47.308Z,4.10
2023-02-11T08:27:15.349Z,4.30
2023-02-11T08:29:43.657Z,4.40
2023-02-11T08:32:11.771Z,4.60
2023-02-11T08:34:39.811Z,4.80
2023-02-11T08:37:09.014Z,5.00
2023-02-11T08:39:37.034Z,5.20
2023-02-11T08:42:06.693Z,5.30
2023-02-11T08:44:34.823Z,5.40
2023-02-11T08:47:02.925Z,5.50
2023-02-11T08:49:32.289Z,5.60
2023-02-11T08:52:03.891Z,5.60
2023-02-11T08:54:32.705Z,5.60
2023-02-11T08:57:01.930Z,5.70
2023-02-11T08:59:31.445Z,5.70
2023-02-11T09:01:59.837Z,5.80
2023-02-11T09:04:27.863Z,5.90
2023-02-11T09:06:55.918Z,5.90
2023-02-11T09:09:24.338Z,6.00
2023-02-11T09:11:57.147Z,6.00
2023-02-11T09:14:25.782Z,6.10
2023-02-11T09:16:55.491Z,6.20
2023-02-11T09:19:24.150Z,6.30
2023-02-11T09:21:52.228Z,6.40
2023-02-11T09:24:20.315Z,6.50
2023-02-11T09:26:49.540Z,6.60
2023-02-11T09:29:17.558Z,6.70
2023-02-11T09:31:45.753Z,6.80
2023-02-11T09:34:15.924Z,7.00
2023-02-11T09:36:44.086Z,7.10
2023-02-11T09:39:16.917Z,7.40
2023-02-11T09:42:15.578Z,7.60
2023-02-11T09:44:46.320Z,7.80
2023-02-11T09:47:25.507Z,8.00
2023-02-11T09:50:01.214Z,8.10
2023-02-11T09:52:37.074Z,8.30
2023-02-11T09:55:07.517Z,8.40
2023-02-11T09:57:37.327Z,8.60
2023-02-11T10:00:19.231Z,8.80
2023-02-11T10:03:08.351Z,9.10
2023-02-11T10:05:49.924Z,9.40
2023-02-11T10:08:24.410Z,9.70
2023-02-11T10:10:59.992Z,9.90
2023-02-11T10:13:50.754Z,10.10
2023-02-11T10:16:35.433Z,10.30
2023-02-11T10:19:18.422Z,10.40
2023-02-11T10:21:55.088Z,10.60
2023-02-11T10:24:23.253Z,10.80
2023-02-11T10:26:53.070Z,11.00
2023-02-11T10:29:34.640Z,11.20
2023-02-11T10:32:08.270Z,11.40
2023-02-11T10:34:42.154Z,11.70
2023-02-11T10:37:14.643Z,11.80
2023-02-11T10:39:42.912Z,11.90
2023-02-11T10:42:13.601Z,12.00
2023-02-11T10:44:47.762Z,12.10
2023-02-11T10:47:23.426Z,12.10
2023-02-11T10:49:51.669Z,12.20
2023-02-11T10:52:23.905Z,12.40
2023-02-11T10:55:05.289Z,12.60
2023-02-11T10:57:37.549Z,12.70
2023-02-11T11:00:20.545Z,12.90
2023-02-11T11:02:55.393Z,13.00
2023-02-11T11:05:29.604Z,13.10
2023-02-11T11:08:01.397Z,13.00
2023-02-11T11:10:36.073Z,13.00
2023-02-11T11:13:04.768Z,13.00
2023-02-11T11:15:33.571Z,13.10
2023-02-11T11:18:23.525Z,13.10
2023-02-11T11:20:59.850Z,13.10
2023-02-11T11:23:30.888Z,13.20
2023-02-11T11:26:03.474Z,13.20
2023-02-11T11:28:36.636Z,13.20
2023-02-11T11:31:05.194Z,13.30
2023-02-11T11:33:37.167Z,13.30
2023-02-11T11:36:08.671Z,13.30
2023-02-11T11:38:43.988Z,13.30
2023-02-11T11:41:26.935Z,13.50
2023-02-11T11:44:03.649Z,13.60
2023-02-11T11:46:35.283Z,13.70
2023-02-11T11:49:14.597Z,13.90
2023-02-11T11:51:45.485Z,14.00
2023-02-11T11:54:19.475Z,14.30
2023-02-11T11:56:54.053Z,14.50
2023-02-11T11:59:23.494Z,14.70
2023-02-11T12:02:08.963Z,15.00
2023-02-11T12:04:54.134Z,15.20
2023-02-11T12:07:36.626Z,15.30
2023-02-11T12:10:29.007Z,15.40
2023-02-11T12:13:09.450Z,15.50
2023-02-11T12:15:45.626Z,15.60
2023-02-11T12:18:33.296Z,15.80
2023-02-11T12:21:25.098Z,15.90
2023-02-11T12:24:07.258Z,16.40
2023-02-11T12:29:17.296Z,17.10
2023-02-11T12:32:00.272Z,17.10
2023-02-11T12:34:51.559Z,17.10
2023-02-11T12:37:30.462Z,17.10
2023-02-11T12:40:10.200Z,17.00
2023-02-11T12:43:17.443Z,17.10
2023-02-11T12:46:18.005Z,17.10
2023-02-11T12:49:00.327Z,17.00
2023-02-11T12:51:38.806Z,16.90
2023-02-11T12:54:20.931Z,16.90
2023-02-11T12:56:53.988Z,16.90
2023-02-11T12:59:35.831Z,16.90
2023-02-11T13:02:12.494Z,16.90
2023-02-11T13:04:47.424Z,17.00
2023-02-11T13:07:20.525Z,17.10
2023-02-11T13:09:54.450Z,17.30
2023-02-11T13:12:40.550Z,17.70
2023-02-11T13:15:15.671Z,18.10
2023-02-11T13:17:51.672Z,18.60
2023-02-11T13:23:00.411Z,19.40
2023-02-11T13:25:35.222Z,19.90
2023-02-11T13:28:20.046Z,20.20
2023-02-11T13:30:57.725Z,20.30
2023-02-11T13:33:34.163Z,20.30
2023-02-11T13:36:34.082Z,20.50
2023-02-11T13:39:05.597Z,20.50
2023-02-11T13:41:37.821Z,20.40
2023-02-11T13:44:24.879Z,20.30
2023-02-11T13:47:01.413Z,20.10
2023-02-11T13:49:40.529Z,19.90
2023-02-11T13:52:25.916Z,19.40
2023-02-11T13:54:56.713Z,19.00
2023-02-11T13:57:33.602Z,18.50
2023-02-11T14:00:03.454Z,18.20
2023-02-11T14:05:45.366Z,17.60
2023-02-11T14:08:45.953Z,17.30
2023-02-11T14:11:48.429Z,17.00
2023-02-11T14:14:23.824Z,16.60
2023-02-11T14:17:21.738Z,16.30
2023-02-11T14:19:51.791Z,16.10
2023-02-11T14:22:26.929Z,15.90
2023-02-11T14:24:57.910Z,15.80
2023-02-11T14:27:43.614Z,15.70
2023-02-11T14:30:53.374Z,15.60
2023-02-11T14:33:57.114Z,15.60
2023-02-11T14:36:58.410Z,15.70
2023-02-11T14:39:52.925Z,15.70
2023-02-11T14:42:25.447Z,15.60
2023-02-11T14:44:56.464Z,15.50
2023-02-11T14:47:29.073Z,15.50
2023-02-11T14:49:57.704Z,15.30
2023-02-11T14:52:31.661Z,15.30
2023-02-11T14:55:17.710Z,15.20
2023-02-11T14:57:49.583Z,15.20
2023-02-11T15:00:20.732Z,15.30
2023-02-11T15:02:50.295Z,15.40
2023-02-11T15:05:21.429Z,15.70
2023-02-11T15:07:53.147Z,16.00
2023-02-11T15:10:29.462Z,16.20
2023-02-11T15:12:58.928Z,16.40
2023-02-11T15:15:27.882Z,16.50
2023-02-11T15:17:58.619Z,16.50
2023-02-11T15:20:29.581Z,16.40
2023-02-11T15:23:01.612Z,16.30
2023-02-11T15:25:32.314Z,16.20
2023-02-11T15:28:01.845Z,16.40
2023-02-11T15:30:34.040Z,16.80
2023-02-11T15:33:05.548Z,17.30
2023-02-11T15:35:36.709Z,17.60
2023-02-11T15:38:07.304Z,17.50
2023-02-11T15:40:37.603Z,17.10
2023-02-11T15:43:07.663Z,16.60
2023-02-11T15:45:38.936Z,16.20
2023-02-11T15:48:10.729Z,15.80
2023-02-11T15:50:40.909Z,15.40
2023-02-11T15:53:24.297Z,15.00
2023-02-11T15:55:54.925Z,14.70
2023-02-11T15:58:24.853Z,14.40
2023-02-11T16:00:59.679Z,14.10
2023-02-11T16:03:32.869Z,13.80
2023-02-11T16:06:20.501Z,13.60
2023-02-11T16:09:02.693Z,13.30
2023-02-11T16:11:33.092Z,13.00
2023-02-11T16:14:04.563Z,12.80
2023-02-11T16:16:35.353Z,12.60
2023-02-11T16:19:06.567Z,12.40
2023-02-11T16:21:39.006Z,12.20
2023-02-11T16:24:16.419Z,12.00
2023-02-11T16:26:49.644Z,11.80
2023-02-11T16:29:20.290Z,11.60
2023-02-11T16:31:50.310Z,11.30
2023-02-11T16:34:19.968Z,11.20
2023-02-11T16:36:49.056Z,11.00
2023-02-11T16:39:21.595Z,10.80
2023-02-11T16:41:50.724Z,10.70
2023-02-11T16:44:18.873Z,10.50
2023-02-11T16:46:47.282Z,10.30
2023-02-11T16:49:21.355Z,10.10
2023-02-11T16:51:51.397Z,10.00
2023-02-11T16:54:21.320Z,9.80
2023-02-11T16:56:49.988Z,9.70
2023-02-11T16:59:18.066Z,9.60
2023-02-11T17:01:47.002Z,9.50
2023-02-11T17:04:20.066Z,9.40
2023-02-11T17:06:48.589Z,9.30
2023-02-11T17:09:22.144Z,9.20
2023-02-11T17:11:50.446Z,9.10
2023-02-11T17:14:19.205Z,9.00
2023-02-11T17:16:48.333Z,8.90
2023-02-11T17:19:19.651Z,8.90
2023-02-11T17:21:49.202Z,8.80
2023-02-11T17:24:17.611Z,8.70
2023-02-11T17:26:47.746Z,8.70
2023-02-11T17:29:17.886Z,8.60
2023-02-11T17:31:46.082Z,8.50
2023-02-11T17:34:14.230Z,8.50
2023-02-11T17:36:42.390Z,8.40
2023-02-11T17:39:10.527Z,8.30
2023-02-11T17:41:39.632Z,8.20
2023-02-11T17:44:10.059Z,8.10
2023-02-11T17:46:38.097Z,8.00
2023-02-11T17:49:06.373Z,8.00
2023-02-11T17:51:37.724Z,7.90
2023-02-11T17:54:08.540Z,7.90
2023-02-11T17:56:37.782Z,7.80
2023-02-11T17:59:08.358Z,7.80
2023-02-11T18:01:39.904Z,7.70
2023-02-11T18:04:09.443Z,7.60
2023-02-11T18:06:37.551Z,7.60
2023-02-11T18:09:05.781Z,7.50
2023-02-11T18:11:35.755Z,7.50
2023-02-11T18:14:04.790Z,7.40
2023-02-11T18:16:35.096Z,7.30
2023-02-11T18:19:06.515Z,7.20
2023-02-11T18:21:34.798Z,7.10
2023-02-11T18:24:06.706Z,7.00
2023-02-11T18:26:36.430Z,7.00
2023-02-11T18:29:06.914Z,6.90
2023-02-11T18:31:36.391Z,6.80
2023-02-11T18:34:07.717Z,6.80
2023-02-11T18:36:36.416Z,6.60
2023-02-11T18:39:05.000Z,6.60
2023-02-11T18:41:33.281Z,6.50
2023-02-11T18:44:03.189Z,6.40
2023-02-11T18:46:31.932Z,6.30
2023-02-11T18:49:00.256Z,6.20
2023-02-11T18:51:31.865Z,6.20
2023-02-11T18:54:01.157Z,6.10
2023-02-11T18:56:29.371Z,6.10
2023-02-11T18:59:01.250Z,6.00
2023-02-11T19:01:31.163Z,6.00
2023-02-11T19:04:02.865Z,5.90
2023-02-11T19:06:34.686Z,5.80
2023-02-11T19:09:05.200Z,5.80
2023-02-11T19:11:50.148Z,5.80
2023-02-11T19:14:21.357Z,5.80
2023-02-11T19:16:51.334Z,5.70
2023-02-11T19:19:20.142Z,5.70
2023-02-11T19:21:50.086Z,5.70
2023-02-11T19:24:19.884Z,5.60
2023-02-11T19:26:49.041Z,5.60
2023-02-11T19:29:17.396Z,5.60
2023-02-11T19:31:45.899Z,5.50
2023-02-11T19:34:16.172Z,5.50
2023-02-11T19:36:44.306Z,5.50
2023-02-11T19:39:14.265Z,5.40
2023-02-11T19:41:42.537Z,5.40
2023-02-11T19:44:10.644Z,5.30
2023-02-11T19:46:41.766Z,5.30
2023-02-11T19:49:10.846Z,5.30
2023-02-11T19:51:39.452Z,5.20
2023-02-11T19:54:08.228Z,5.20
2023-02-11T19:56:38.465Z,5.20
2023-02-11T19:59:09.096Z,5.10
2023-02-11T20:01:37.836Z,5.10
2023-02-11T20:04:06.344Z,5.10
2023-02-11T20:06:35.800Z,5.10
2023-02-11T20:09:06.440Z,5.00
2023-02-11T20:11:35.358Z,5.00
2023-02-11T20:14:06.752Z,5.00
2023-02-11T20:16:47.674Z,4.90
2023-02-11T20:19:18.348Z,4.90
2023-02-11T20:21:47.960Z,4.90
2023-02-11T20:24:16.205Z,4.90
2023-02-11T20:26:45.274Z,4.90
2023-02-11T20:29:15.291Z,4.80
2023-02-11T20:31:43.878Z,4.80
2023-02-11T20:34:12.480Z,4.80
2023-02-11T20:36:40.995Z,4.80
2023-02-11T20:39:09.507Z,4.70
2023-02-11T20:41:39.907Z,4.70
2023-02-11T20:44:09.839Z,4.70
2023-02-11T20:46:41.053Z,4.60
2023-02-11T20:49:11.242Z,4.60
2023-02-11T20:51:39.477Z,4.60
2023-02-11T20:54:07.985Z,4.60
2023-02-11T20:56:37.805Z,4.50
2023-02-11T20:59:07.273Z,4.50
2023-02-11T21:01:37.023Z,4.50
2023-02-11T21:04:08.401Z,4.50
2023-02-11T21:06:38.730Z,4.50
2023-02-11T21:09:08.971Z,4.50
2023-02-11T21:11:37.102Z,4.50
2023-02-11T21:14:05.234Z,4.50
2023-02-11T21:16:33.998Z,4.40
2023-02-11T21:19:02.898Z,4.40
2023-02-11T21:21:37.017Z,4.40
2023-02-11T21:24:05.382Z,4.40
2023-02-11T21:26:33.680Z,4.40
2023-02-11T21:29:01.764Z,4.40
2023-02-11T21:31:32.190Z,4.30
2023-02-11T21:34:00.393Z,4.40
2023-02-11T21:36:29.961Z,4.40
2023-02-11T21:39:00.174Z,4.30
2023-02-11T21:41:28.544Z,4.30
2023-02-11T21:43:56.634Z,4.40
2023-02-11T21:46:25.456Z,4.30
2023-02-11T21:48:53.622Z,4.40
2023-02-11T21:51:23.659Z,4.40
2023-02-11T21:53:55.036Z,4.30
2023-02-11T21:56:26.325Z,4.30
2023-02-11T21:58:56.203Z,4.30
2023-02-11T22:01:26.603Z,4.30
2023-02-11T22:03:54.870Z,4.30
2023-02-11T22:06:26.172Z,4.30
2023-02-11T22:08:54.981Z,4.20
2023-02-11T22:11:25.104Z,4.20
2023-02-11T22:13:56.232Z,4.20
2023-02-11T22:16:25.687Z,4.20
2023-02-11T22:18:53.871Z,4.20
2023-02-11T22:21:23.801Z,4.20
2023-02-11T22:23:52.670Z,4.20
2023-02-11T22:26:22.562Z,4.10
2023-02-11T22:28:53.614Z,4.10
2023-02-11T22:31:24.481Z,4.10
2023-02-11T22:33:52.608Z,4.00
2023-02-11T22:36:22.704Z,4.00
2023-02-11T22:38:51.208Z,4.00
2023-02-11T22:41:20.174Z,4.00
2023-02-11T22:43:48.701Z,3.90
2023-02-11T22:46:20.854Z,4.00
2023-02-11T22:48:49.457Z,3.90
2023-02-11T22:51:19.392Z,3.90
2023-02-11T22:53:51.286Z,3.90
2023-02-11T22:56:19.451Z,3.90
2023-02-11T22:58:47.652Z,3.90
2023-02-11T23:01:17.644Z,3.90
2023-02-11T23:03:46.116Z,3.90
2023-02-11T23:06:14.469Z,3.90
2023-02-11T23:08:43.968Z,4.00
2023-02-11T23:11:14.238Z,4.00
2023-02-11T23:13:43.390Z,4.00
2023-02-11T23:16:13.990Z,4.00
2023-02-11T23:18:45.116Z,4.00
2023-02-11T23:21:16.467Z,4.00
2023-02-11T23:23:45.243Z,4.00
2023-02-11T23:26:14.898Z,4.00
2023-02-11T23:28:45.873Z,4.00
2023-02-11T23:31:16.002Z,4.00
2023-02-11T23:33:46.287Z,4.10
2023-02-11T23:36:15.630Z,4.10
2023-02-11T23:38:43.703Z,4.10
2023-02-11T23:41:12.676Z,4.10
2023-02-11T23:43:40.780Z,4.10
2023-02-11T23:46:09.696Z,4.10
2023-02-11T23:48:37.981Z,4.10
2023-02-11T23:51:09.642Z,4.10
2023-02-11T23:53:37.942Z,4.10
2023-02-11T23:56:09.181Z,4.10
2023-02-11T23:58:37.859Z,4.10
